sensor_id;sensor_type;location;lat;lon;timestamp;P1;durP1;ratioP1;P2;durP2;ratioP2
24761;SDS011;12865;51.934;10.330;2023-10-13T00:01:59;7.45;;;6.18;;
24761;SDS011;12865;51.934;10.330;2023-10-13T00:04:29;10.90;;;6.78;;
24761;SDS011;12865;51.934;10.330;2023-10-13T00:06:57;7.10;;;5.25;;
24761;SDS011;12865;51.934;10.330;2023-10-13T00:09:23;7.00;;;5.32;;
24761;SDS011;12865;51.934;10.330;2023-10-13T00:11:57;6.72;;;5.20;;
24761;SDS011;12865;51.934;10.330;2023-10-13T00:14:23;6.95;;;5.13;;
24761;SDS011;12865;51.934;10.330;2023-10-13T00:16:57;6.78;;;6.13;;
24761;SDS011;12865;51.934;10.330;2023-10-13T00:19:41;7.03;;;6.35;;
24761;SDS011;12865;51.934;10.330;2023-10-13T00:22:11;6.40;;;5.30;;
24761;SDS011;12865;51.934;10.330;2023-10-13T00:24:37;7.18;;;6.45;;
24761;SDS011;12865;51.934;10.330;2023-10-13T00:27:14;6.75;;;6.03;;
24761;SDS011;12865;51.934;10.330;2023-10-13T00:30:06;6.25;;;5.53;;
24761;SDS011;12865;51.934;10.330;2023-10-13T00:32:47;6.57;;;5.30;;
24761;SDS011;12865;51.934;10.330;2023-10-13T00:35:20;6.72;;;5.47;;
24761;SDS011;12865;51.934;10.330;2023-10-13T00:38:07;5.88;;;5.28;;
24761;SDS011;12865;51.934;10.330;2023-10-13T00:40:38;8.20;;;5.93;;
24761;SDS011;12865;51.934;10.330;2023-10-13T00:43:04;6.07;;;5.47;;
24761;SDS011;12865;51.934;10.330;2023-10-13T00:51:19;6.90;;;5.97;;
24761;SDS011;12865;51.934;10.330;2023-10-13T00:53:58;7.05;;;5.35;;
24761;SDS011;12865;51.934;10.330;2023-10-13T00:56:27;5.30;;;4.90;;
24761;SDS011;12865;51.934;10.330;2023-10-13T00:58:54;6.85;;;5.78;;
24761;SDS011;12865;51.934;10.330;2023-10-13T01:01:22;8.40;;;6.03;;
24761;SDS011;12865;51.934;10.330;2023-10-13T01:03:54;8.50;;;6.22;;
24761;SDS011;12865;51.934;10.330;2023-10-13T01:06:24;6.13;;;5.53;;
24761;SDS011;12865;51.934;10.330;2023-10-13T01:08:56;6.78;;;5.65;;
24761;SDS011;12865;51.934;10.330;2023-10-13T01:11:25;7.72;;;5.63;;
24761;SDS011;12865;51.934;10.330;2023-10-13T01:13:52;5.72;;;5.10;;
24761;SDS011;12865;51.934;10.330;2023-10-13T01:16:21;4.93;;;4.43;;
24761;SDS011;12865;51.934;10.330;2023-10-13T01:18:48;5.95;;;5.10;;
24761;SDS011;12865;51.934;10.330;2023-10-13T01:21:17;8.23;;;5.40;;
24761;SDS011;12865;51.934;10.330;2023-10-13T01:23:45;7.78;;;5.75;;
24761;SDS011;12865;51.934;10.330;2023-10-13T01:26:13;7.28;;;5.05;;
24761;SDS011;12865;51.934;10.330;2023-10-13T01:28:46;5.28;;;4.68;;
24761;SDS011;12865;51.934;10.330;2023-10-13T01:31:12;5.53;;;4.57;;
24761;SDS011;12865;51.934;10.330;2023-10-13T01:33:41;6.20;;;4.43;;
24761;SDS011;12865;51.934;10.330;2023-10-13T01:36:06;7.57;;;4.90;;
24761;SDS011;12865;51.934;10.330;2023-10-13T01:38:34;5.43;;;4.80;;
24761;SDS011;12865;51.934;10.330;2023-10-13T01:41:01;5.13;;;4.18;;
24761;SDS011;12865;51.934;10.330;2023-10-13T01:43:30;5.75;;;5.03;;
24761;SDS011;12865;51.934;10.330;2023-10-13T01:45:55;7.07;;;5.00;;
24761;SDS011;12865;51.934;10.330;2023-10-13T01:48:20;6.55;;;4.45;;
24761;SDS011;12865;51.934;10.330;2023-10-13T01:50:46;7.50;;;4.65;;
24761;SDS011;12865;51.934;10.330;2023-10-13T01:53:38;5.85;;;4.60;;
24761;SDS011;12865;51.934;10.330;2023-10-13T01:56:04;5.35;;;4.88;;
24761;SDS011;12865;51.934;10.330;2023-10-13T01:58:35;6.13;;;4.82;;
24761;SDS011;12865;51.934;10.330;2023-10-13T02:01:01;6.28;;;4.90;;
24761;SDS011;12865;51.934;10.330;2023-10-13T02:03:27;6.15;;;5.65;;
24761;SDS011;12865;51.934;10.330;2023-10-13T02:05:55;6.32;;;4.80;;
24761;SDS011;12865;51.934;10.330;2023-10-13T02:08:22;5.88;;;4.90;;
24761;SDS011;12865;51.934;10.330;2023-10-13T02:10:49;4.93;;;4.30;;
24761;SDS011;12865;51.934;10.330;2023-10-13T02:13:19;6.13;;;4.50;;
24761;SDS011;12865;51.934;10.330;2023-10-13T02:15:47;7.13;;;4.00;;
24761;SDS011;12865;51.934;10.330;2023-10-13T02:23:11;4.75;;;4.35;;
24761;SDS011;12865;51.934;10.330;2023-10-13T02:25:37;7.18;;;4.53;;
24761;SDS011;12865;51.934;10.330;2023-10-13T02:28:11;8.57;;;5.57;;
24761;SDS011;12865;51.934;10.330;2023-10-13T02:30:40;8.20;;;5.65;;
24761;SDS011;12865;51.934;10.330;2023-10-13T02:33:09;7.93;;;5.57;;
24761;SDS011;12865;51.934;10.330;2023-10-13T02:35:37;6.57;;;5.50;;
24761;SDS011;12865;51.934;10.330;2023-10-13T02:38:06;6.93;;;5.22;;
24761;SDS011;12865;51.934;10.330;2023-10-13T02:40:36;7.53;;;5.75;;
24761;SDS011;12865;51.934;10.330;2023-10-13T02:43:02;10.70;;;6.90;;
24761;SDS011;12865;51.934;10.330;2023-10-13T02:45:29;8.55;;;5.95;;
24761;SDS011;12865;51.934;10.330;2023-10-13T02:47:55;6.75;;;6.03;;
24761;SDS011;12865;51.934;10.330;2023-10-13T02:50:35;7.07;;;6.38;;
24761;SDS011;12865;51.934;10.330;2023-10-13T02:53:03;7.13;;;6.43;;
24761;SDS011;12865;51.934;10.330;2023-10-13T02:55:37;7.55;;;5.93;;
24761;SDS011;12865;51.934;10.330;2023-10-13T02:58:03;7.78;;;6.32;;
24761;SDS011;12865;51.934;10.330;2023-10-13T03:00:29;7.28;;;6.57;;
24761;SDS011;12865;51.934;10.330;2023-10-13T03:02:56;10.90;;;6.78;;
24761;SDS011;12865;51.934;10.330;2023-10-13T03:05:26;7.00;;;6.25;;
24761;SDS011;12865;51.934;10.330;2023-10-13T03:07:56;9.73;;;6.80;;
24761;SDS011;12865;51.934;10.330;2023-10-13T03:10:23;7.43;;;6.57;;
24761;SDS011;12865;51.934;10.330;2023-10-13T03:12:54;8.77;;;7.00;;
24761;SDS011;12865;51.934;10.330;2023-10-13T03:15:20;8.57;;;7.68;;
24761;SDS011;12865;51.934;10.330;2023-10-13T03:17:55;7.97;;;6.93;;
24761;SDS011;12865;51.934;10.330;2023-10-13T03:20:23;8.27;;;7.57;;
24761;SDS011;12865;51.934;10.330;2023-10-13T03:22:58;10.27;;;8.60;;
24761;SDS011;12865;51.934;10.330;2023-10-13T03:25:24;9.65;;;7.28;;
24761;SDS011;12865;51.934;10.330;2023-10-13T03:27:53;8.02;;;7.30;;
24761;SDS011;12865;51.934;10.330;2023-10-13T03:30:19;8.65;;;7.50;;
24761;SDS011;12865;51.934;10.330;2023-10-13T03:32:46;8.60;;;6.97;;
24761;SDS011;12865;51.934;10.330;2023-10-13T03:35:18;11.23;;;7.40;;
24761;SDS011;12865;51.934;10.330;2023-10-13T03:37:54;8.65;;;7.20;;
24761;SDS011;12865;51.934;10.330;2023-10-13T03:40:20;10.93;;;7.60;;
24761;SDS011;12865;51.934;10.330;2023-10-13T03:42:47;8.30;;;7.35;;
24761;SDS011;12865;51.934;10.330;2023-10-13T03:45:31;8.55;;;7.20;;
24761;SDS011;12865;51.934;10.330;2023-10-13T03:48:16;8.30;;;7.10;;
24761;SDS011;12865;51.934;10.330;2023-10-13T03:50:54;7.88;;;7.00;;
24761;SDS011;12865;51.934;10.330;2023-10-13T03:53:35;8.50;;;7.28;;
24761;SDS011;12865;51.934;10.330;2023-10-13T03:56:15;9.25;;;6.25;;
24761;SDS011;12865;51.934;10.330;2023-10-13T03:58:41;6.68;;;5.80;;
24761;SDS011;12865;51.934;10.330;2023-10-13T04:01:18;7.32;;;6.63;;
24761;SDS011;12865;51.934;10.330;2023-10-13T04:03:49;10.60;;;6.70;;
24761;SDS011;12865;51.934;10.330;2023-10-13T04:06:34;9.20;;;6.40;;
24761;SDS011;12865;51.934;10.330;2023-10-13T04:09:20;8.15;;;6.40;;
24761;SDS011;12865;51.934;10.330;2023-10-13T04:11:49;9.52;;;6.00;;
24761;SDS011;12865;51.934;10.330;2023-10-13T04:14:35;7.38;;;5.50;;
24761;SDS011;12865;51.934;10.330;2023-10-13T04:17:20;7.90;;;6.60;;
24761;SDS011;12865;51.934;10.330;2023-10-13T04:19:51;9.48;;;6.10;;
24761;SDS011;12865;51.934;10.330;2023-10-13T04:22:36;8.98;;;6.13;;
24761;SDS011;12865;51.934;10.330;2023-10-13T04:25:18;6.78;;;6.07;;
24761;SDS011;12865;51.934;10.330;2023-10-13T04:28:14;8.32;;;6.43;;
24761;SDS011;12865;51.934;10.330;2023-10-13T04:30:59;7.43;;;6.07;;
24761;SDS011;12865;51.934;10.330;2023-10-13T04:33:36;7.72;;;6.55;;
24761;SDS011;12865;51.934;10.330;2023-10-13T04:36:21;9.63;;;6.90;;
24761;SDS011;12865;51.934;10.330;2023-10-13T04:38:47;9.95;;;7.13;;
24761;SDS011;12865;51.934;10.330;2023-10-13T04:41:29;10.25;;;6.82;;
24761;SDS011;12865;51.934;10.330;2023-10-13T04:44:22;8.75;;;6.28;;
24761;SDS011;12865;51.934;10.330;2023-10-13T04:46:47;8.93;;;6.10;;
24761;SDS011;12865;51.934;10.330;2023-10-13T04:49:12;9.45;;;7.05;;
24761;SDS011;12865;51.934;10.330;2023-10-13T04:52:00;9.65;;;6.25;;
24761;SDS011;12865;51.934;10.330;2023-10-13T04:54:35;12.03;;;6.43;;
24761;SDS011;12865;51.934;10.330;2023-10-13T04:57:34;7.60;;;6.00;;
24761;SDS011;12865;51.934;10.330;2023-10-13T05:00:11;7.95;;;6.38;;
24761;SDS011;12865;51.934;10.330;2023-10-13T05:02:44;8.73;;;6.65;;
24761;SDS011;12865;51.934;10.330;2023-10-13T05:05:42;11.32;;;6.78;;
24761;SDS011;12865;51.934;10.330;2023-10-13T05:08:30;11.27;;;6.88;;
24761;SDS011;12865;51.934;10.330;2023-10-13T05:11:14;10.32;;;6.20;;
24761;SDS011;12865;51.934;10.330;2023-10-13T05:13:59;10.73;;;7.07;;
24761;SDS011;12865;51.934;10.330;2023-10-13T05:16:42;11.27;;;6.55;;
24761;SDS011;12865;51.934;10.330;2023-10-13T05:19:26;10.18;;;7.28;;
24761;SDS011;12865;51.934;10.330;2023-10-13T05:22:10;9.65;;;6.72;;
24761;SDS011;12865;51.934;10.330;2023-10-13T05:24:53;16.75;;;7.68;;
24761;SDS011;12865;51.934;10.330;2023-10-13T05:27:37;13.20;;;7.50;;
24761;SDS011;12865;51.934;10.330;2023-10-13T05:30:21;9.10;;;6.93;;
24761;SDS011;12865;51.934;10.330;2023-10-13T05:33:05;9.82;;;6.47;;
24761;SDS011;12865;51.934;10.330;2023-10-13T05:35:49;7.82;;;7.03;;
24761;SDS011;12865;51.934;10.330;2023-10-13T05:38:32;8.07;;;6.78;;
24761;SDS011;12865;51.934;10.330;2023-10-13T05:41:16;14.88;;;6.97;;
24761;SDS011;12865;51.934;10.330;2023-10-13T05:44:00;8.68;;;7.15;;
24761;SDS011;12865;51.934;10.330;2023-10-13T05:46:44;8.05;;;7.00;;
24761;SDS011;12865;51.934;10.330;2023-10-13T05:49:26;8.18;;;6.93;;
24761;SDS011;12865;51.934;10.330;2023-10-13T05:52:12;11.07;;;7.50;;
24761;SDS011;12865;51.934;10.330;2023-10-13T05:54:56;10.15;;;7.10;;
24761;SDS011;12865;51.934;10.330;2023-10-13T05:57:39;8.57;;;7.35;;
24761;SDS011;12865;51.934;10.330;2023-10-13T06:00:23;9.65;;;6.88;;
24761;SDS011;12865;51.934;10.330;2023-10-13T06:03:07;10.20;;;7.38;;
24761;SDS011;12865;51.934;10.330;2023-10-13T06:05:50;9.98;;;7.05;;
24761;SDS011;12865;51.934;10.330;2023-10-13T06:08:34;11.18;;;7.05;;
24761;SDS011;12865;51.934;10.330;2023-10-13T06:11:18;7.85;;;6.95;;
24761;SDS011;12865;51.934;10.330;2023-10-13T06:14:01;12.50;;;7.25;;
24761;SDS011;12865;51.934;10.330;2023-10-13T06:17:02;9.70;;;6.75;;
24761;SDS011;12865;51.934;10.330;2023-10-13T06:19:46;12.35;;;6.95;;
24761;SDS011;12865;51.934;10.330;2023-10-13T06:22:29;11.63;;;7.15;;
24761;SDS011;12865;51.934;10.330;2023-10-13T06:25:13;10.52;;;8.13;;
24761;SDS011;12865;51.934;10.330;2023-10-13T06:27:57;8.45;;;6.70;;
24761;SDS011;12865;51.934;10.330;2023-10-13T06:30:41;11.35;;;6.53;;
24761;SDS011;12865;51.934;10.330;2023-10-13T06:33:09;9.15;;;6.60;;
24761;SDS011;12865;51.934;10.330;2023-10-13T06:35:36;6.72;;;6.07;;
24761;SDS011;12865;51.934;10.330;2023-10-13T06:38:04;8.73;;;6.20;;
24761;SDS011;12865;51.934;10.330;2023-10-13T06:40:34;8.65;;;6.53;;
24761;SDS011;12865;51.934;10.330;2023-10-13T06:43:01;10.95;;;6.68;;
24761;SDS011;12865;51.934;10.330;2023-10-13T06:45:42;13.57;;;6.88;;
24761;SDS011;12865;51.934;10.330;2023-10-13T06:48:15;9.10;;;6.63;;
24761;SDS011;12865;51.934;10.330;2023-10-13T06:50:47;8.75;;;6.60;;
24761;SDS011;12865;51.934;10.330;2023-10-13T06:53:13;10.55;;;6.72;;
24761;SDS011;12865;51.934;10.330;2023-10-13T06:55:39;10.02;;;6.22;;
24761;SDS011;12865;51.934;10.330;2023-10-13T06:58:08;9.02;;;6.47;;
24761;SDS011;12865;51.934;10.330;2023-10-13T07:00:38;7.45;;;6.25;;
24761;SDS011;12865;51.934;10.330;2023-10-13T07:03:17;10.68;;;6.35;;
24761;SDS011;12865;51.934;10.330;2023-10-13T07:05:43;9.85;;;6.50;;
24761;SDS011;12865;51.934;10.330;2023-10-13T07:08:09;8.93;;;6.35;;
24761;SDS011;12865;51.934;10.330;2023-10-13T07:10:46;7.97;;;6.13;;
24761;SDS011;12865;51.934;10.330;2023-10-13T07:13:16;13.10;;;6.53;;
24761;SDS011;12865;51.934;10.330;2023-10-13T07:15:42;10.00;;;6.22;;
24761;SDS011;12865;51.934;10.330;2023-10-13T07:18:13;8.27;;;6.10;;
24761;SDS011;12865;51.934;10.330;2023-10-13T07:20:45;11.30;;;6.78;;
24761;SDS011;12865;51.934;10.330;2023-10-13T07:23:11;8.55;;;6.15;;
24761;SDS011;12865;51.934;10.330;2023-10-13T07:25:42;9.88;;;6.30;;
24761;SDS011;12865;51.934;10.330;2023-10-13T07:28:16;9.07;;;5.80;;
24761;SDS011;12865;51.934;10.330;2023-10-13T07:30:41;8.52;;;6.18;;
24761;SDS011;12865;51.934;10.330;2023-10-13T07:33:19;11.60;;;5.90;;
24761;SDS011;12865;51.934;10.330;2023-10-13T07:36:09;8.82;;;6.22;;
24761;SDS011;12865;51.934;10.330;2023-10-13T07:38:46;7.78;;;5.95;;
24761;SDS011;12865;51.934;10.330;2023-10-13T07:41:17;8.18;;;5.53;;
24761;SDS011;12865;51.934;10.330;2023-10-13T07:43:42;6.82;;;5.47;;
24761;SDS011;12865;51.934;10.330;2023-10-13T07:46:10;10.63;;;4.97;;
24761;SDS011;12865;51.934;10.330;2023-10-13T07:48:37;6.80;;;5.43;;
24761;SDS011;12865;51.934;10.330;2023-10-13T07:51:04;6.90;;;4.88;;
24761;SDS011;12865;51.934;10.330;2023-10-13T07:53:36;7.90;;;4.70;;
24761;SDS011;12865;51.934;10.330;2023-10-13T07:56:05;8.15;;;5.13;;
24761;SDS011;12865;51.934;10.330;2023-10-13T07:58:34;10.13;;;5.63;;
24761;SDS011;12865;51.934;10.330;2023-10-13T08:01:12;7.80;;;5.00;;
24761;SDS011;12865;51.934;10.330;2023-10-13T08:03:42;8.75;;;6.10;;
24761;SDS011;12865;51.934;10.330;2023-10-13T08:06:11;6.53;;;4.70;;
24761;SDS011;12865;51.934;10.330;2023-10-13T08:08:38;4.65;;;4.25;;
24761;SDS011;12865;51.934;10.330;2023-10-13T08:11:04;6.45;;;4.57;;
24761;SDS011;12865;51.934;10.330;2023-10-13T08:13:41;8.77;;;4.53;;
24761;SDS011;12865;51.934;10.330;2023-10-13T08:16:14;6.07;;;5.07;;
24761;SDS011;12865;51.934;10.330;2023-10-13T08:18:51;6.05;;;4.75;;
24761;SDS011;12865;51.934;10.330;2023-10-13T08:21:21;5.45;;;4.30;;
24761;SDS011;12865;51.934;10.330;2023-10-13T08:23:50;5.97;;;4.75;;
24761;SDS011;12865;51.934;10.330;2023-10-13T08:26:18;6.28;;;4.55;;
24761;SDS011;12865;51.934;10.330;2023-10-13T08:29:02;7.18;;;4.53;;
24761;SDS011;12865;51.934;10.330;2023-10-13T08:31:44;5.93;;;3.88;;
24761;SDS011;12865;51.934;10.330;2023-10-13T08:34:34;5.78;;;4.28;;
24761;SDS011;12865;51.934;10.330;2023-10-13T08:37:05;8.35;;;5.03;;
24761;SDS011;12865;51.934;10.330;2023-10-13T08:39:52;6.82;;;4.57;;
24761;SDS011;12865;51.934;10.330;2023-10-13T08:42:29;7.68;;;5.30;;
24761;SDS011;12865;51.934;10.330;2023-10-13T08:45:16;5.47;;;4.40;;
24761;SDS011;12865;51.934;10.330;2023-10-13T08:47:50;7.38;;;5.22;;
24761;SDS011;12865;51.934;10.330;2023-10-13T08:50:33;8.35;;;5.00;;
24761;SDS011;12865;51.934;10.330;2023-10-13T08:53:18;6.57;;;5.05;;
24761;SDS011;12865;51.934;10.330;2023-10-13T08:58:43;8.85;;;4.80;;
24761;SDS011;12865;51.934;10.330;2023-10-13T09:01:25;8.68;;;5.30;;
24761;SDS011;12865;51.934;10.330;2023-10-13T09:04:10;9.13;;;4.90;;
24761;SDS011;12865;51.934;10.330;2023-10-13T09:06:54;7.82;;;4.82;;
24761;SDS011;12865;51.934;10.330;2023-10-13T09:09:30;9.65;;;5.00;;
24761;SDS011;12865;51.934;10.330;2023-10-13T09:14:37;9.10;;;5.15;;
24761;SDS011;12865;51.934;10.330;2023-10-13T09:17:07;9.35;;;5.30;;
24761;SDS011;12865;51.934;10.330;2023-10-13T09:22:27;7.70;;;4.75;;
24761;SDS011;12865;51.934;10.330;2023-10-13T09:25:00;12.10;;;4.57;;
24761;SDS011;12865;51.934;10.330;2023-10-13T09:27:28;10.52;;;4.72;;
24761;SDS011;12865;51.934;10.330;2023-10-13T09:30:04;12.43;;;4.72;;
24761;SDS011;12865;51.934;10.330;2023-10-13T09:32:35;7.68;;;5.13;;
24761;SDS011;12865;51.934;10.330;2023-10-13T09:35:20;9.63;;;5.75;;
24761;SDS011;12865;51.934;10.330;2023-10-13T09:37:52;8.43;;;4.97;;
24761;SDS011;12865;51.934;10.330;2023-10-13T09:40:24;11.88;;;5.35;;
24761;SDS011;12865;51.934;10.330;2023-10-13T09:42:52;12.70;;;5.45;;
24761;SDS011;12865;51.934;10.330;2023-10-13T09:45:22;10.63;;;5.07;;
24761;SDS011;12865;51.934;10.330;2023-10-13T09:47:52;10.27;;;5.38;;
24761;SDS011;12865;51.934;10.330;2023-10-13T09:50:22;12.82;;;5.13;;
24761;SDS011;12865;51.934;10.330;2023-10-13T09:52:51;15.52;;;5.55;;
24761;SDS011;12865;51.934;10.330;2023-10-13T09:57:56;11.45;;;5.45;;
24761;SDS011;12865;51.934;10.330;2023-10-13T10:00:34;11.25;;;5.82;;
24761;SDS011;12865;51.934;10.330;2023-10-13T10:03:07;11.50;;;5.30;;
24761;SDS011;12865;51.934;10.330;2023-10-13T10:05:57;12.55;;;5.38;;
24761;SDS011;12865;51.934;10.330;2023-10-13T10:08:39;11.27;;;5.13;;
24761;SDS011;12865;51.934;10.330;2023-10-13T10:19:27;10.88;;;5.65;;
24761;SDS011;12865;51.934;10.330;2023-10-13T10:22:03;16.48;;;5.70;;
24761;SDS011;12865;51.934;10.330;2023-10-13T10:24:41;17.33;;;6.32;;
24761;SDS011;12865;51.934;10.330;2023-10-13T10:27:07;14.30;;;5.47;;
24761;SDS011;12865;51.934;10.330;2023-10-13T10:29:33;12.50;;;5.80;;
24761;SDS011;12865;51.934;10.330;2023-10-13T10:31:59;17.27;;;5.75;;
24761;SDS011;12865;51.934;10.330;2023-10-13T10:34:30;18.17;;;5.85;;
24761;SDS011;12865;51.934;10.330;2023-10-13T10:36:57;12.65;;;5.30;;
24761;SDS011;12865;51.934;10.330;2023-10-13T10:39:35;10.90;;;5.57;;
24761;SDS011;12865;51.934;10.330;2023-10-13T10:42:11;15.57;;;5.78;;
24761;SDS011;12865;51.934;10.330;2023-10-13T10:44:54;12.50;;;5.65;;
24761;SDS011;12865;51.934;10.330;2023-10-13T10:47:30;10.50;;;4.88;;
24761;SDS011;12865;51.934;10.330;2023-10-13T10:50:04;11.98;;;5.40;;
24761;SDS011;12865;51.934;10.330;2023-10-13T10:52:44;12.15;;;5.47;;
24761;SDS011;12865;51.934;10.330;2023-10-13T10:55:11;13.52;;;4.97;;
24761;SDS011;12865;51.934;10.330;2023-10-13T10:57:39;16.38;;;5.30;;
24761;SDS011;12865;51.934;10.330;2023-10-13T11:00:18;8.57;;;5.80;;
24761;SDS011;12865;51.934;10.330;2023-10-13T11:02:54;12.55;;;5.20;;
24761;SDS011;12865;51.934;10.330;2023-10-13T11:05:20;11.23;;;5.60;;
24761;SDS011;12865;51.934;10.330;2023-10-13T11:07:46;10.25;;;5.28;;
24761;SDS011;12865;51.934;10.330;2023-10-13T11:10:17;13.63;;;5.50;;
24761;SDS011;12865;51.934;10.330;2023-10-13T11:12:59;12.50;;;5.28;;
24761;SDS011;12865;51.934;10.330;2023-10-13T11:15:45;14.38;;;5.90;;
24761;SDS011;12865;51.934;10.330;2023-10-13T11:18:10;14.43;;;5.05;;
24761;SDS011;12865;51.934;10.330;2023-10-13T11:20:45;9.80;;;4.57;;
24761;SDS011;12865;51.934;10.330;2023-10-13T11:23:12;13.90;;;5.82;;
24761;SDS011;12865;51.934;10.330;2023-10-13T11:25:38;11.82;;;5.45;;
24761;SDS011;12865;51.934;10.330;2023-10-13T11:28:10;9.63;;;5.00;;
24761;SDS011;12865;51.934;10.330;2023-10-13T11:30:45;11.75;;;5.28;;
24761;SDS011;12865;51.934;10.330;2023-10-13T11:33:15;14.85;;;5.88;;
24761;SDS011;12865;51.934;10.330;2023-10-13T11:35:46;11.10;;;5.95;;
24761;SDS011;12865;51.934;10.330;2023-10-13T11:38:18;12.90;;;5.55;;
24761;SDS011;12865;51.934;10.330;2023-10-13T11:41:02;13.13;;;5.70;;
24761;SDS011;12865;51.934;10.330;2023-10-13T11:46:20;9.80;;;5.55;;
24761;SDS011;12865;51.934;10.330;2023-10-13T11:48:59;11.35;;;5.57;;
24761;SDS011;12865;51.934;10.330;2023-10-13T11:51:30;13.65;;;5.93;;
24761;SDS011;12865;51.934;10.330;2023-10-13T11:53:57;13.80;;;5.60;;
24761;SDS011;12865;51.934;10.330;2023-10-13T11:56:23;13.68;;;6.40;;
24761;SDS011;12865;51.934;10.330;2023-10-13T11:58:49;13.70;;;6.28;;
24761;SDS011;12865;51.934;10.330;2023-10-13T12:01:15;15.02;;;6.05;;
24761;SDS011;12865;51.934;10.330;2023-10-13T12:03:41;10.35;;;6.50;;
24761;SDS011;12865;51.934;10.330;2023-10-13T12:06:29;15.43;;;6.35;;
24761;SDS011;12865;51.934;10.330;2023-10-13T12:09:06;13.95;;;6.38;;
24761;SDS011;12865;51.934;10.330;2023-10-13T12:11:42;14.35;;;5.53;;
24761;SDS011;12865;51.934;10.330;2023-10-13T12:14:10;12.43;;;5.80;;
24761;SDS011;12865;51.934;10.330;2023-10-13T12:16:47;12.32;;;5.95;;
24761;SDS011;12865;51.934;10.330;2023-10-13T12:19:17;12.48;;;5.50;;
24761;SDS011;12865;51.934;10.330;2023-10-13T12:21:48;14.32;;;6.22;;
24761;SDS011;12865;51.934;10.330;2023-10-13T12:24:20;12.05;;;5.57;;
24761;SDS011;12865;51.934;10.330;2023-10-13T12:27:02;10.57;;;6.82;;
24761;SDS011;12865;51.934;10.330;2023-10-13T12:29:59;17.02;;;6.07;;
24761;SDS011;12865;51.934;10.330;2023-10-13T12:32:32;13.82;;;5.80;;
24761;SDS011;12865;51.934;10.330;2023-10-13T12:34:59;12.15;;;5.57;;
24761;SDS011;12865;51.934;10.330;2023-10-13T12:37:41;10.80;;;5.65;;
24761;SDS011;12865;51.934;10.330;2023-10-13T12:40:17;16.75;;;5.68;;
24761;SDS011;12865;51.934;10.330;2023-10-13T12:43:03;15.50;;;5.85;;
24761;SDS011;12865;51.934;10.330;2023-10-13T12:45:48;12.43;;;5.80;;
24761;SDS011;12865;51.934;10.330;2023-10-13T12:48:34;13.98;;;6.25;;
24761;SDS011;12865;51.934;10.330;2023-10-13T12:51:20;17.55;;;6.38;;
24761;SDS011;12865;51.934;10.330;2023-10-13T12:54:06;14.98;;;5.78;;
24761;SDS011;12865;51.934;10.330;2023-10-13T12:56:45;11.73;;;5.88;;
24761;SDS011;12865;51.934;10.330;2023-10-13T12:59:10;13.13;;;5.82;;
24761;SDS011;12865;51.934;10.330;2023-10-13T13:01:38;12.30;;;6.05;;
24761;SDS011;12865;51.934;10.330;2023-10-13T13:04:07;14.00;;;6.38;;
24761;SDS011;12865;51.934;10.330;2023-10-13T13:06:37;14.57;;;6.40;;
24761;SDS011;12865;51.934;10.330;2023-10-13T13:09:05;14.98;;;6.15;;
24761;SDS011;12865;51.934;10.330;2023-10-13T13:11:34;12.38;;;6.75;;
24761;SDS011;12865;51.934;10.330;2023-10-13T13:14:04;11.85;;;6.00;;
24761;SDS011;12865;51.934;10.330;2023-10-13T13:16:32;14.23;;;7.20;;
24761;SDS011;12865;51.934;10.330;2023-10-13T13:18:58;12.25;;;6.47;;
24761;SDS011;12865;51.934;10.330;2023-10-13T13:21:24;11.30;;;6.47;;
24761;SDS011;12865;51.934;10.330;2023-10-13T13:23:49;14.18;;;6.50;;
24761;SDS011;12865;51.934;10.330;2023-10-13T13:26:15;18.23;;;6.78;;
24761;SDS011;12865;51.934;10.330;2023-10-13T13:28:41;14.77;;;8.13;;
24761;SDS011;12865;51.934;10.330;2023-10-13T13:31:07;14.15;;;6.53;;
24761;SDS011;12865;51.934;10.330;2023-10-13T13:33:33;14.38;;;7.18;;
24761;SDS011;12865;51.934;10.330;2023-10-13T13:36:04;13.43;;;6.15;;
24761;SDS011;12865;51.934;10.330;2023-10-13T13:38:30;11.93;;;6.43;;
24761;SDS011;12865;51.934;10.330;2023-10-13T13:40:57;14.95;;;6.78;;
24761;SDS011;12865;51.934;10.330;2023-10-13T13:43:23;13.70;;;6.70;;
24761;SDS011;12865;51.934;10.330;2023-10-13T13:46:09;12.60;;;6.88;;
24761;SDS011;12865;51.934;10.330;2023-10-13T13:48:37;14.52;;;6.53;;
24761;SDS011;12865;51.934;10.330;2023-10-13T13:51:04;11.88;;;6.47;;
24761;SDS011;12865;51.934;10.330;2023-10-13T13:53:37;11.90;;;6.30;;
24761;SDS011;12865;51.934;10.330;2023-10-13T13:56:07;14.27;;;6.90;;
24761;SDS011;12865;51.934;10.330;2023-10-13T13:58:33;15.32;;;7.93;;
24761;SDS011;12865;51.934;10.330;2023-10-13T14:01:01;12.07;;;7.10;;
24761;SDS011;12865;51.934;10.330;2023-10-13T14:03:59;13.55;;;6.57;;
24761;SDS011;12865;51.934;10.330;2023-10-13T14:06:31;14.82;;;6.72;;
24761;SDS011;12865;51.934;10.330;2023-10-13T14:08:59;16.83;;;7.40;;
24761;SDS011;12865;51.934;10.330;2023-10-13T14:11:29;13.55;;;7.10;;
24761;SDS011;12865;51.934;10.330;2023-10-13T14:14:14;15.02;;;6.95;;
24761;SDS011;12865;51.934;10.330;2023-10-13T14:19:27;13.27;;;7.15;;
24761;SDS011;12865;51.934;10.330;2023-10-13T14:21:56;16.02;;;7.18;;
24761;SDS011;12865;51.934;10.330;2023-10-13T14:24:22;18.13;;;7.47;;
24761;SDS011;12865;51.934;10.330;2023-10-13T14:26:59;17.55;;;8.43;;
24761;SDS011;12865;51.934;10.330;2023-10-13T14:29:42;10.50;;;6.90;;
24761;SDS011;12865;51.934;10.330;2023-10-13T14:32:12;12.20;;;6.75;;
24761;SDS011;12865;51.934;10.330;2023-10-13T14:34:40;16.77;;;6.95;;
24761;SDS011;12865;51.934;10.330;2023-10-13T14:37:06;13.02;;;6.65;;
24761;SDS011;12865;51.934;10.330;2023-10-13T14:39:32;14.70;;;7.88;;
24761;SDS011;12865;51.934;10.330;2023-10-13T14:42:00;13.07;;;7.05;;
24761;SDS011;12865;51.934;10.330;2023-10-13T14:44:27;10.85;;;5.93;;
24761;SDS011;12865;51.934;10.330;2023-10-13T14:46:53;14.63;;;6.50;;
24761;SDS011;12865;51.934;10.330;2023-10-13T14:49:20;14.55;;;6.30;;
24761;SDS011;12865;51.934;10.330;2023-10-13T14:51:46;14.43;;;6.57;;
24761;SDS011;12865;51.934;10.330;2023-10-13T14:54:11;17.33;;;7.35;;
24761;SDS011;12865;51.934;10.330;2023-10-13T14:56:36;17.63;;;6.88;;
24761;SDS011;12865;51.934;10.330;2023-10-13T14:59:02;14.43;;;6.90;;
24761;SDS011;12865;51.934;10.330;2023-10-13T15:01:29;13.57;;;6.80;;
24761;SDS011;12865;51.934;10.330;2023-10-13T15:03:57;15.40;;;7.45;;
24761;SDS011;12865;51.934;10.330;2023-10-13T15:06:24;14.93;;;6.43;;
24761;SDS011;12865;51.934;10.330;2023-10-13T15:08:54;10.07;;;6.00;;
24761;SDS011;12865;51.934;10.330;2023-10-13T15:11:23;12.60;;;6.90;;
24761;SDS011;12865;51.934;10.330;2023-10-13T15:13:54;17.35;;;6.65;;
24761;SDS011;12865;51.934;10.330;2023-10-13T15:16:25;14.35;;;6.07;;
24761;SDS011;12865;51.934;10.330;2023-10-13T15:18:51;20.27;;;7.25;;
24761;SDS011;12865;51.934;10.330;2023-10-13T15:21:21;11.75;;;7.20;;
24761;SDS011;12865;51.934;10.330;2023-10-13T15:23:49;13.50;;;7.35;;
24761;SDS011;12865;51.934;10.330;2023-10-13T15:26:17;13.35;;;7.15;;
24761;SDS011;12865;51.934;10.330;2023-10-13T15:28:48;15.82;;;6.80;;
24761;SDS011;12865;51.934;10.330;2023-10-13T15:31:17;11.73;;;6.88;;
24761;SDS011;12865;51.934;10.330;2023-10-13T15:34:02;11.70;;;7.20;;
24761;SDS011;12865;51.934;10.330;2023-10-13T15:36:35;19.00;;;7.07;;
24761;SDS011;12865;51.934;10.330;2023-10-13T15:39:00;17.48;;;7.93;;
24761;SDS011;12865;51.934;10.330;2023-10-13T15:41:26;17.30;;;7.57;;